createdAt,value
2023-02-23T00:02:17.851Z,3.9
2023-02-23T00:08:12.094Z,3.5
2023-02-23T00:14:04.314Z,3.8
2023-02-23T00:19:56.528Z,3.5
2023-02-23T00:25:36.239Z,3.4
2023-02-23T00:31:31.726Z,3.3
2023-02-23T00:37:24.667Z,3.4
2023-02-23T00:43:18.063Z,3.2
2023-02-23T00:49:12.106Z,3
2023-02-23T00:55:04.585Z,3.1
2023-02-23T01:00:57.619Z,3.7
2023-02-23T01:06:50.602Z,4.1
2023-02-23T01:12:43.207Z,4
2023-02-23T01:18:37.126Z,3.8
2023-02-23T01:24:30.298Z,3.3
2023-02-23T01:30:08.074Z,3.3
2023-02-23T01:36:03.614Z,3
2023-02-23T01:41:56.897Z,2.8
2023-02-23T01:47:48.871Z,2.5
2023-02-23T01:53:26.575Z,2.5
2023-02-23T01:59:20.209Z,2.5
2023-02-23T02:04:56.920Z,1.8
2023-02-23T02:10:50.754Z,1.7
2023-02-23T02:16:43.946Z,1.7
2023-02-23T02:22:21.175Z,1.6
2023-02-23T02:27:59.826Z,1.4
2023-02-23T02:33:53.129Z,1.4
2023-02-23T02:39:46.462Z,1.3
2023-02-23T02:45:40.101Z,1.2
2023-02-23T02:51:18.328Z,1.1
2023-02-23T02:56:55.647Z,1
2023-02-23T03:02:32.829Z,1.1
2023-02-23T03:08:10.198Z,1.4
2023-02-23T03:13:31.935Z,1.3
2023-02-23T03:19:10.185Z,1.3
2023-02-23T03:24:47.978Z,1.3
2023-02-23T03:30:09.486Z,1.4
2023-02-23T03:35:30.920Z,1.4
2023-02-23T03:40:53.556Z,1.4
2023-02-23T03:46:31.792Z,1.2
2023-02-23T03:52:09.969Z,1.1
2023-02-23T03:57:48.407Z,1.3
2023-02-23T04:03:25.423Z,1.5
2023-02-23T04:08:47.728Z,1.5
2023-02-23T04:14:10.571Z,1.6
2023-02-23T04:19:47.009Z,1.6
2023-02-23T04:25:24.173Z,1.7
2023-02-23T04:31:02.155Z,1.5
2023-02-23T04:36:55.728Z,1.4
2023-02-23T04:42:17.399Z,1.4
2023-02-23T04:47:55.043Z,1.5
2023-02-23T04:53:33.032Z,1.2
2023-02-23T04:59:29.273Z,1.4
2023-02-23T05:05:24.762Z,1.5
2023-02-23T05:11:16.201Z,1.3
2023-02-23T05:17:09.290Z,1
2023-02-23T05:23:03.385Z,1
2023-02-23T05:28:55.863Z,0.9
2023-02-23T05:34:50.420Z,0.7
2023-02-23T05:40:43.721Z,0.7
2023-02-23T05:46:20.060Z,0.7
2023-02-23T05:52:13.810Z,0.8
2023-02-23T05:57:52.233Z,1.2
2023-02-23T06:03:28.409Z,1.4
2023-02-23T06:09:21.747Z,2
2023-02-23T06:15:15.097Z,2.4
2023-02-23T06:21:06.677Z,2.4
2023-02-23T06:27:01.244Z,2.9
2023-02-23T06:32:55.635Z,3.6
2023-02-23T06:38:47.800Z,4
2023-02-23T06:44:40.183Z,4.1
2023-02-23T06:50:32.678Z,4.4
2023-02-23T06:56:12.157Z,4.9
2023-02-23T07:02:05.863Z,5.4
2023-02-23T07:07:59.090Z,5.9
2023-02-23T07:13:52.011Z,6.6
2023-02-23T07:19:48.962Z,7
2023-02-23T07:25:41.957Z,7.9
2023-02-23T07:31:35.229Z,7.7
2023-02-23T07:37:28.981Z,8.8
2023-02-23T07:43:23.349Z,9
2023-02-23T07:49:16.392Z,9.3
2023-02-23T07:55:09.149Z,9.3
2023-02-23T08:01:03.990Z,9.7
2023-02-23T08:06:57.131Z,9.8
2023-02-23T08:12:51.845Z,10.4
2023-02-23T08:18:44.579Z,10.6
2023-02-23T08:24:49.129Z,11.6
2023-02-23T08:30:42.204Z,11.6
2023-02-23T08:36:36.161Z,12.2
2023-02-23T08:42:29.175Z,11.1
2023-02-23T08:48:22.444Z,11.9
2023-02-23T08:54:14.681Z,11.6
2023-02-23T08:59:51.395Z,12.1
2023-02-23T09:05:44.342Z,12.1
2023-02-23T09:11:37.988Z,13
2023-02-23T09:17:29.995Z,12.9
2023-02-23T09:23:23.369Z,14.1
2023-02-23T09:29:04.237Z,15.5
2023-02-23T09:34:41.663Z,15.4
2023-02-23T09:40:31.000Z,14.6
2023-02-23T09:46:09.179Z,15.2
2023-02-23T09:52:01.291Z,16.4
2023-02-23T09:57:55.057Z,15.4
2023-02-23T10:03:48.587Z,15.3
2023-02-23T10:09:27.956Z,16.5
2023-02-23T10:15:23.658Z,16.4
2023-02-23T10:21:19.843Z,16.8
2023-02-23T10:27:12.284Z,16.5
2023-02-23T10:32:50.526Z,16.9
2023-02-23T10:38:48.649Z,17.1
2023-02-23T10:44:33.547Z,18
2023-02-23T10:50:26.683Z,18.6
2023-02-23T10:56:09.875Z,19
2023-02-23T11:02:17.866Z,19.3
2023-02-23T11:08:20.680Z,19.4
2023-02-23T11:14:31.340Z,17.6
2023-02-23T11:20:37.754Z,17.4
2023-02-23T11:26:40.265Z,18.1
2023-02-23T11:32:33.593Z,18.4
2023-02-23T11:38:26.156Z,18
2023-02-23T11:44:22.441Z,17.1
2023-02-23T11:50:17.001Z,17.1
2023-02-23T11:55:53.580Z,17.4
2023-02-23T12:01:47.611Z,17.9
2023-02-23T12:07:41.537Z,17.4
2023-02-23T12:13:19.371Z,18.1
2023-02-23T12:19:12.775Z,18.9
2023-02-23T12:25:05.711Z,18.8
2023-02-23T12:31:10.068Z,17.6
2023-02-23T12:37:03.553Z,18.1
2023-02-23T12:42:56.709Z,17.6
2023-02-23T12:54:27.591Z,18.1
2023-02-23T13:00:22.613Z,18.6
2023-02-23T13:06:15.309Z,17.6
2023-02-23T13:12:16.023Z,17.9
2023-02-23T13:18:09.119Z,18.3
2023-02-23T13:23:46.744Z,17.6
2023-02-23T13:29:24.705Z,17.3
2023-02-23T13:35:12.915Z,17.1
2023-02-23T13:41:19.184Z,16.9
2023-02-23T13:47:11.638Z,16.8
2023-02-23T13:53:12.284Z,16.9
2023-02-23T13:59:14.306Z,16.8
2023-02-23T14:05:08.799Z,16.9
2023-02-23T14:10:32.408Z,16.8
2023-02-23T14:16:28.752Z,16.9
2023-02-23T14:22:31.263Z,16.7
2023-02-23T14:28:40.623Z,15.9
2023-02-23T14:34:28.506Z,15.3
2023-02-23T14:40:33.339Z,14.9
2023-02-23T14:46:37.872Z,14.6
2023-02-23T14:52:44.813Z,14.4
2023-02-23T14:58:28.914Z,14.2
2023-02-23T15:04:38.647Z,13.9
2023-02-23T15:10:31.048Z,13.9
2023-02-23T15:16:31.550Z,13.6
2023-02-23T15:22:35.014Z,13.3
2023-02-23T15:28:42.427Z,13.1
2023-02-23T15:34:36.865Z,13.4
2023-02-23T15:41:02.270Z,13.2
2023-02-23T15:47:04.185Z,12.9
2023-02-23T15:53:10.577Z,12.8
2023-02-23T15:58:56.234Z,12.6
2023-02-23T16:04:49.845Z,12.3
2023-02-23T16:10:52.011Z,12.1
2023-02-23T16:16:45.491Z,12
2023-02-23T16:22:47.831Z,11.9
2023-02-23T16:28:48.844Z,11.8
2023-02-23T16:34:11.689Z,11.7
2023-02-23T16:39:49.085Z,11.5
2023-02-23T16:45:50.453Z,11.4
2023-02-23T16:51:49.006Z,11.2
2023-02-23T16:57:41.683Z,11.1
2023-02-23T17:03:40.934Z,10.9
2023-02-23T17:09:31.607Z,10.9
2023-02-23T17:15:25.621Z,10.8
2023-02-23T17:21:18.742Z,10.6
2023-02-23T17:27:11.918Z,10.6
2023-02-23T17:33:09.782Z,10.4
2023-02-23T17:39:02.692Z,10.3
2023-02-23T17:44:56.030Z,10.2
2023-02-23T17:50:50.007Z,10
2023-02-23T17:56:44.992Z,9.9
2023-02-23T18:02:39.031Z,9.8
2023-02-23T18:08:32.248Z,9.6
2023-02-23T18:14:09.710Z,9.5
2023-02-23T18:20:04.468Z,9.4
2023-02-23T18:25:58.027Z,9.3
2023-02-23T18:31:35.564Z,9.1
2023-02-23T18:37:30.403Z,9
2023-02-23T18:43:23.411Z,8.9
2023-02-23T18:49:00.939Z,8.9
2023-02-23T18:54:38.148Z,8.7
2023-02-23T19:00:34.382Z,8.6
2023-02-23T19:06:29.084Z,8.6
2023-02-23T19:12:06.713Z,8.4
2023-02-23T19:18:13.980Z,8.3
2023-02-23T19:24:07.367Z,8.2
2023-02-23T19:29:44.664Z,8.1
2023-02-23T19:35:39.895Z,8.1
2023-02-23T19:41:32.903Z,8
2023-02-23T19:47:25.019Z,7.9
2023-02-23T19:53:18.826Z,7.9
2023-02-23T19:59:09.906Z,7.8
2023-02-23T20:05:03.767Z,7.8
2023-02-23T20:10:57.665Z,7.7
2023-02-23T20:16:50.468Z,7.7
2023-02-23T20:22:42.826Z,7.6
2023-02-23T20:28:35.677Z,7.6
2023-02-23T20:34:30.887Z,7.6
2023-02-23T20:40:24.027Z,7.6
2023-02-23T20:46:18.102Z,7.6
2023-02-23T20:52:10.729Z,7.6
2023-02-23T20:57:48.805Z,7.5
2023-02-23T21:03:27.886Z,7.5
2023-02-23T21:09:21.323Z,7.4
2023-02-23T21:15:14.145Z,7.5
2023-02-23T21:20:54.005Z,7.4
2023-02-23T21:26:47.336Z,7.4
2023-02-23T21:32:13.160Z,7.4
2023-02-23T21:38:06.897Z,7.4
2023-02-23T21:43:59.630Z,7.4
2023-02-23T21:49:52.852Z,7.4
2023-02-23T21:55:53.990Z,7.4
2023-02-23T22:01:46.720Z,7.4
2023-02-23T22:07:39.323Z,7.4
2023-02-23T22:13:16.187Z,7.4
2023-02-23T22:19:09.851Z,7.4
2023-02-23T22:25:02.941Z,7.3
2023-02-23T22:30:55.749Z,7.3
2023-02-23T22:36:49.237Z,7.4
2023-02-23T22:42:26.182Z,7.3
2023-02-23T22:48:19.530Z,7.3
2023-02-23T22:54:56.500Z,7.3
2023-02-23T23:00:33.639Z,7.3
2023-02-23T23:06:27.646Z,7.2
2023-02-23T23:12:21.220Z,7.2
2023-02-23T23:18:33.582Z,7.2
2023-02-23T23:24:26.782Z,7.1
2023-02-23T23:30:18.570Z,7.1
2023-02-23T23:36:13.997Z,7.1
2023-02-23T23:42:06.255Z,7.1
2023-02-23T23:47:59.063Z,7
2023-02-23T23:53:52.451Z,7
2023-02-23T23:59:46.502Z,6.9
